sensor_id;sensor_type;location;lat;lon;timestamp;temperature;humidity
52669;DHT22;59898;52.786;6.892;2023-03-07T00:02:58;4.00;99.90
52669;DHT22;59898;52.786;6.892;2023-03-07T00:06:19;3.70;99.90
52669;DHT22;59898;52.786;6.892;2023-03-07T00:09:40;4.20;99.90
52669;DHT22;59898;52.786;6.892;2023-03-07T00:13:01;3.80;99.90
52669;DHT22;59898;52.786;6.892;2023-03-07T00:16:23;3.80;99.90
52669;DHT22;59898;52.786;6.892;2023-03-07T00:19:44;3.80;99.90
52669;DHT22;59898;52.786;6.892;2023-03-07T00:23:04;3.90;99.90
52669;DHT22;59898;52.786;6.892;2023-03-07T00:26:26;3.80;99.90
52669;DHT22;59898;52.786;6.892;2023-03-07T00:29:47;3.80;99.90
52669;DHT22;59898;52.786;6.892;2023-03-07T00:33:09;3.70;99.90
52669;DHT22;59898;52.786;6.892;2023-03-07T00:36:30;3.70;99.90
52669;DHT22;59898;52.786;6.892;2023-03-07T00:39:51;4.00;99.90
52669;DHT22;59898;52.786;6.892;2023-03-07T00:43:11;3.70;99.90
52669;DHT22;59898;52.786;6.892;2023-03-07T00:46:32;3.70;99.90
52669;DHT22;59898;52.786;6.892;2023-03-07T00:49:53;3.70;99.90
52669;DHT22;59898;52.786;6.892;2023-03-07T00:53:13;3.80;99.90
52669;DHT22;59898;52.786;6.892;2023-03-07T00:56:34;3.90;99.90
52669;DHT22;59898;52.786;6.892;2023-03-07T00:59:55;4.30;99.90
52669;DHT22;59898;52.786;6.892;2023-03-07T01:03:16;3.80;99.90
52669;DHT22;59898;52.786;6.892;2023-03-07T01:06:37;4.00;99.90
52669;DHT22;59898;52.786;6.892;2023-03-07T01:09:58;4.00;99.90
52669;DHT22;59898;52.786;6.892;2023-03-07T01:13:18;3.90;99.90
52669;DHT22;59898;52.786;6.892;2023-03-07T01:16:39;4.30;99.90
52669;DHT22;59898;52.786;6.892;2023-03-07T01:20:01;3.80;99.90
52669;DHT22;59898;52.786;6.892;2023-03-07T01:23:21;3.80;99.90
52669;DHT22;59898;52.786;6.892;2023-03-07T01:26:42;3.80;99.90
52669;DHT22;59898;52.786;6.892;2023-03-07T01:30:04;4.20;99.90
52669;DHT22;59898;52.786;6.892;2023-03-07T01:33:25;3.80;99.90
52669;DHT22;59898;52.786;6.892;2023-03-07T01:36:46;3.80;99.90
52669;DHT22;59898;52.786;6.892;2023-03-07T01:40:08;3.80;99.90
52669;DHT22;59898;52.786;6.892;2023-03-07T01:43:31;3.80;99.90
52669;DHT22;59898;52.786;6.892;2023-03-07T01:46:54;3.80;99.90
52669;DHT22;59898;52.786;6.892;2023-03-07T01:50:16;4.20;99.90
52669;DHT22;59898;52.786;6.892;2023-03-07T01:53:37;3.80;99.90
52669;DHT22;59898;52.786;6.892;2023-03-07T01:57:00;3.80;99.90
52669;DHT22;59898;52.786;6.892;2023-03-07T02:00:22;3.80;99.90
52669;DHT22;59898;52.786;6.892;2023-03-07T02:07:12;3.70;99.90
52669;DHT22;59898;52.786;6.892;2023-03-07T02:10:34;3.70;99.90
52669;DHT22;59898;52.786;6.892;2023-03-07T02:13:55;3.80;99.90
52669;DHT22;59898;52.786;6.892;2023-03-07T02:17:16;3.90;99.90
52669;DHT22;59898;52.786;6.892;2023-03-07T02:27:36;3.60;99.90
52669;DHT22;59898;52.786;6.892;2023-03-07T02:31:03;3.60;99.90
52669;DHT22;59898;52.786;6.892;2023-03-07T02:34:29;3.50;99.90
52669;DHT22;59898;52.786;6.892;2023-03-07T02:37:56;3.50;99.90
52669;DHT22;59898;52.786;6.892;2023-03-07T02:41:23;4.00;99.90
52669;DHT22;59898;52.786;6.892;2023-03-07T02:44:45;3.50;99.90
52669;DHT22;59898;52.786;6.892;2023-03-07T02:48:06;3.50;99.90
52669;DHT22;59898;52.786;6.892;2023-03-07T02:51:27;3.50;99.90
52669;DHT22;59898;52.786;6.892;2023-03-07T02:54:48;3.60;99.90
52669;DHT22;59898;52.786;6.892;2023-03-07T02:58:08;3.40;99.90
52669;DHT22;59898;52.786;6.892;2023-03-07T03:01:30;3.90;99.90
52669;DHT22;59898;52.786;6.892;2023-03-07T03:04:51;3.30;99.90
52669;DHT22;59898;52.786;6.892;2023-03-07T03:08:11;3.30;99.90
52669;DHT22;59898;52.786;6.892;2023-03-07T03:11:32;3.30;99.90
52669;DHT22;59898;52.786;6.892;2023-03-07T03:14:53;3.60;99.90
52669;DHT22;59898;52.786;6.892;2023-03-07T03:18:14;3.20;99.90
52669;DHT22;59898;52.786;6.892;2023-03-07T03:21:34;3.30;99.90
52669;DHT22;59898;52.786;6.892;2023-03-07T03:24:55;3.20;99.90
52669;DHT22;59898;52.786;6.892;2023-03-07T03:28:16;3.20;99.90
52669;DHT22;59898;52.786;6.892;2023-03-07T03:31:36;3.20;99.90
52669;DHT22;59898;52.786;6.892;2023-03-07T03:34:57;3.10;99.90
52669;DHT22;59898;52.786;6.892;2023-03-07T03:38:18;3.10;99.90
52669;DHT22;59898;52.786;6.892;2023-03-07T03:41:38;3.50;99.90
52669;DHT22;59898;52.786;6.892;2023-03-07T03:44:59;3.20;99.90
52669;DHT22;59898;52.786;6.892;2023-03-07T03:48:20;3.20;99.90
52669;DHT22;59898;52.786;6.892;2023-03-07T03:51:41;3.20;99.90
52669;DHT22;59898;52.786;6.892;2023-03-07T03:55:02;3.50;99.90
52669;DHT22;59898;52.786;6.892;2023-03-07T03:58:22;3.10;99.90
52669;DHT22;59898;52.786;6.892;2023-03-07T04:01:43;3.10;99.90
52669;DHT22;59898;52.786;6.892;2023-03-07T04:05:04;3.40;99.90
52669;DHT22;59898;52.786;6.892;2023-03-07T04:08:25;3.10;99.90
52669;DHT22;59898;52.786;6.892;2023-03-07T04:11:45;3.20;99.90
52669;DHT22;59898;52.786;6.892;2023-03-07T04:15:07;3.10;99.90
52669;DHT22;59898;52.786;6.892;2023-03-07T04:18:28;3.10;99.90
52669;DHT22;59898;52.786;6.892;2023-03-07T04:21:48;3.10;99.90
52669;DHT22;59898;52.786;6.892;2023-03-07T04:25:09;3.20;99.90
52669;DHT22;59898;52.786;6.892;2023-03-07T04:28:32;3.50;99.90
52669;DHT22;59898;52.786;6.892;2023-03-07T04:32:02;3.70;99.90
52669;DHT22;59898;52.786;6.892;2023-03-07T04:35:23;3.20;99.90
52669;DHT22;59898;52.786;6.892;2023-03-07T04:38:46;3.30;99.90
52669;DHT22;59898;52.786;6.892;2023-03-07T04:42:06;3.20;99.90
52669;DHT22;59898;52.786;6.892;2023-03-07T04:45:28;3.60;99.90
52669;DHT22;59898;52.786;6.892;2023-03-07T04:48:49;3.20;99.90
52669;DHT22;59898;52.786;6.892;2023-03-07T04:52:10;3.20;99.90
52669;DHT22;59898;52.786;6.892;2023-03-07T04:55:30;3.50;99.90
52669;DHT22;59898;52.786;6.892;2023-03-07T04:58:52;3.20;99.90
52669;DHT22;59898;52.786;6.892;2023-03-07T05:02:12;3.20;99.90
52669;DHT22;59898;52.786;6.892;2023-03-07T05:05:33;3.20;99.90
52669;DHT22;59898;52.786;6.892;2023-03-07T05:08:54;3.20;99.90
52669;DHT22;59898;52.786;6.892;2023-03-07T05:12:15;3.60;99.90
52669;DHT22;59898;52.786;6.892;2023-03-07T05:15:35;3.20;99.90
52669;DHT22;59898;52.786;6.892;2023-03-07T05:18:56;3.20;99.90
52669;DHT22;59898;52.786;6.892;2023-03-07T05:22:17;3.40;99.90
52669;DHT22;59898;52.786;6.892;2023-03-07T05:25:38;3.10;99.90
52669;DHT22;59898;52.786;6.892;2023-03-07T05:28:58;3.20;99.90
52669;DHT22;59898;52.786;6.892;2023-03-07T05:32:19;3.20;99.90
52669;DHT22;59898;52.786;6.892;2023-03-07T05:35:40;3.20;99.90
52669;DHT22;59898;52.786;6.892;2023-03-07T05:39:00;3.20;99.90
52669;DHT22;59898;52.786;6.892;2023-03-07T05:42:21;3.20;99.90
52669;DHT22;59898;52.786;6.892;2023-03-07T05:45:42;3.10;99.90
52669;DHT22;59898;52.786;6.892;2023-03-07T05:49:02;3.10;99.90
52669;DHT22;59898;52.786;6.892;2023-03-07T05:52:24;3.10;99.90
52669;DHT22;59898;52.786;6.892;2023-03-07T05:55:45;3.10;99.90
52669;DHT22;59898;52.786;6.892;2023-03-07T05:59:06;3.10;99.90
52669;DHT22;59898;52.786;6.892;2023-03-07T06:02:27;3.30;99.90
52669;DHT22;59898;52.786;6.892;2023-03-07T06:05:49;3.10;99.90
52669;DHT22;59898;52.786;6.892;2023-03-07T06:09:09;3.10;99.90
52669;DHT22;59898;52.786;6.892;2023-03-07T06:12:30;3.10;99.90
52669;DHT22;59898;52.786;6.892;2023-03-07T06:15:54;3.20;99.90
52669;DHT22;59898;52.786;6.892;2023-03-07T06:19:15;3.40;99.90
52669;DHT22;59898;52.786;6.892;2023-03-07T06:22:35;3.30;99.90
52669;DHT22;59898;52.786;6.892;2023-03-07T06:25:59;3.40;99.90
52669;DHT22;59898;52.786;6.892;2023-03-07T06:29:20;3.20;99.90
52669;DHT22;59898;52.786;6.892;2023-03-07T06:32:40;3.70;99.90
52669;DHT22;59898;52.786;6.892;2023-03-07T06:36:07;3.20;99.90
52669;DHT22;59898;52.786;6.892;2023-03-07T06:39:28;3.20;99.90
52669;DHT22;59898;52.786;6.892;2023-03-07T06:42:51;3.20;99.90
52669;DHT22;59898;52.786;6.892;2023-03-07T06:46:13;3.20;99.90
52669;DHT22;59898;52.786;6.892;2023-03-07T06:49:33;3.30;99.90
52669;DHT22;59898;52.786;6.892;2023-03-07T06:52:54;3.70;99.90
52669;DHT22;59898;52.786;6.892;2023-03-07T06:56:15;3.20;99.90
52669;DHT22;59898;52.786;6.892;2023-03-07T06:59:35;3.20;99.90
52669;DHT22;59898;52.786;6.892;2023-03-07T07:02:56;3.70;99.90
52669;DHT22;59898;52.786;6.892;2023-03-07T07:06:17;3.20;99.90
52669;DHT22;59898;52.786;6.892;2023-03-07T07:09:38;3.20;99.90
52669;DHT22;59898;52.786;6.892;2023-03-07T07:12:58;3.30;99.90
52669;DHT22;59898;52.786;6.892;2023-03-07T07:16:19;3.20;99.90
52669;DHT22;59898;52.786;6.892;2023-03-07T07:19:40;3.20;99.90
52669;DHT22;59898;52.786;6.892;2023-03-07T07:23:01;3.20;99.90
52669;DHT22;59898;52.786;6.892;2023-03-07T07:26:22;3.20;99.90
52669;DHT22;59898;52.786;6.892;2023-03-07T07:29:43;3.40;99.90
52669;DHT22;59898;52.786;6.892;2023-03-07T07:33:04;3.20;99.90
52669;DHT22;59898;52.786;6.892;2023-03-07T07:36:25;3.10;99.90
52669;DHT22;59898;52.786;6.892;2023-03-07T07:39:47;3.30;99.90
52669;DHT22;59898;52.786;6.892;2023-03-07T07:43:14;3.10;99.90
52669;DHT22;59898;52.786;6.892;2023-03-07T07:46:35;3.00;99.90
52669;DHT22;59898;52.786;6.892;2023-03-07T07:49:55;3.00;99.90
52669;DHT22;59898;52.786;6.892;2023-03-07T07:53:16;3.00;99.90
52669;DHT22;59898;52.786;6.892;2023-03-07T07:56:37;3.00;99.90
52669;DHT22;59898;52.786;6.892;2023-03-07T07:59:57;3.00;99.90
52669;DHT22;59898;52.786;6.892;2023-03-07T08:03:18;3.10;99.90
52669;DHT22;59898;52.786;6.892;2023-03-07T08:06:39;3.30;99.90
52669;DHT22;59898;52.786;6.892;2023-03-07T08:09:59;3.00;99.90
52669;DHT22;59898;52.786;6.892;2023-03-07T08:13:20;3.50;99.90
52669;DHT22;59898;52.786;6.892;2023-03-07T08:16:41;3.00;99.90
52669;DHT22;59898;52.786;6.892;2023-03-07T08:20:02;3.10;99.90
52669;DHT22;59898;52.786;6.892;2023-03-07T08:23:27;3.00;99.90
52669;DHT22;59898;52.786;6.892;2023-03-07T08:26:48;3.10;99.90
52669;DHT22;59898;52.786;6.892;2023-03-07T08:30:11;3.00;99.90
52669;DHT22;59898;52.786;6.892;2023-03-07T08:33:32;3.00;99.90
52669;DHT22;59898;52.786;6.892;2023-03-07T08:36:53;3.00;99.90
52669;DHT22;59898;52.786;6.892;2023-03-07T08:40:15;3.00;99.90
52669;DHT22;59898;52.786;6.892;2023-03-07T08:43:36;2.90;99.90
52669;DHT22;59898;52.786;6.892;2023-03-07T08:46:58;2.90;99.90
52669;DHT22;59898;52.786;6.892;2023-03-07T08:50:28;2.90;99.90
52669;DHT22;59898;52.786;6.892;2023-03-07T08:53:49;2.80;99.90
52669;DHT22;59898;52.786;6.892;2023-03-07T08:57:09;2.70;99.90
52669;DHT22;59898;52.786;6.892;2023-03-07T09:00:30;2.80;99.90
52669;DHT22;59898;52.786;6.892;2023-03-07T09:03:51;2.80;99.90
52669;DHT22;59898;52.786;6.892;2023-03-07T09:07:12;2.70;99.90
52669;DHT22;59898;52.786;6.892;2023-03-07T09:10:34;2.80;99.90
52669;DHT22;59898;52.786;6.892;2023-03-07T09:13:54;3.20;99.90
52669;DHT22;59898;52.786;6.892;2023-03-07T09:17:15;2.80;99.90
52669;DHT22;59898;52.786;6.892;2023-03-07T09:20:38;3.00;99.90
52669;DHT22;59898;52.786;6.892;2023-03-07T09:23:59;2.90;99.90
52669;DHT22;59898;52.786;6.892;2023-03-07T09:27:20;3.00;99.90
52669;DHT22;59898;52.786;6.892;2023-03-07T09:30:41;3.10;99.90
52669;DHT22;59898;52.786;6.892;2023-03-07T09:34:01;3.50;99.90
52669;DHT22;59898;52.786;6.892;2023-03-07T09:37:22;3.20;99.90
52669;DHT22;59898;52.786;6.892;2023-03-07T09:40:46;3.10;99.90
52669;DHT22;59898;52.786;6.892;2023-03-07T09:47:45;3.20;99.90
52669;DHT22;59898;52.786;6.892;2023-03-07T09:51:23;3.30;99.90
52669;DHT22;59898;52.786;6.892;2023-03-07T09:54:55;3.40;99.90
52669;DHT22;59898;52.786;6.892;2023-03-07T09:58:20;3.40;99.90
52669;DHT22;59898;52.786;6.892;2023-03-07T10:01:43;3.80;99.90
52669;DHT22;59898;52.786;6.892;2023-03-07T10:08:31;3.60;99.90
52669;DHT22;59898;52.786;6.892;2023-03-07T10:15:46;3.80;99.90
52669;DHT22;59898;52.786;6.892;2023-03-07T10:26:33;3.90;99.90
52669;DHT22;59898;52.786;6.892;2023-03-07T10:29:56;4.00;99.90
52669;DHT22;59898;52.786;6.892;2023-03-07T10:33:19;4.00;99.90
52669;DHT22;59898;52.786;6.892;2023-03-07T10:36:43;3.90;99.90
52669;DHT22;59898;52.786;6.892;2023-03-07T10:40:15;3.70;99.90
52669;DHT22;59898;52.786;6.892;2023-03-07T10:43:38;3.60;99.90
52669;DHT22;59898;52.786;6.892;2023-03-07T10:46:59;4.00;99.90
52669;DHT22;59898;52.786;6.892;2023-03-07T10:50:26;3.40;99.90
52669;DHT22;59898;52.786;6.892;2023-03-07T10:53:49;3.30;99.90
52669;DHT22;59898;52.786;6.892;2023-03-07T11:00:30;3.80;99.90
52669;DHT22;59898;52.786;6.892;2023-03-07T11:04:21;3.40;99.90
52669;DHT22;59898;52.786;6.892;2023-03-07T11:07:41;3.50;99.90
52669;DHT22;59898;52.786;6.892;2023-03-07T11:11:03;3.60;99.90
52669;DHT22;59898;52.786;6.892;2023-03-07T11:14:27;3.70;99.90
52669;DHT22;59898;52.786;6.892;2023-03-07T11:17:48;3.90;99.90
52669;DHT22;59898;52.786;6.892;2023-03-07T11:21:30;4.10;99.90
52669;DHT22;59898;52.786;6.892;2023-03-07T11:25:13;4.20;99.90
52669;DHT22;59898;52.786;6.892;2023-03-07T11:28:34;4.30;99.90
52669;DHT22;59898;52.786;6.892;2023-03-07T11:36:13;4.50;99.90
52669;DHT22;59898;52.786;6.892;2023-03-07T11:39:20;4.70;99.90
52669;DHT22;59898;52.786;6.892;2023-03-07T11:43:04;4.80;99.90
52669;DHT22;59898;52.786;6.892;2023-03-07T11:50:10;5.10;99.90
52669;DHT22;59898;52.786;6.892;2023-03-07T11:53:41;5.30;99.90
52669;DHT22;59898;52.786;6.892;2023-03-07T12:15:21;6.30;99.90
52669;DHT22;59898;52.786;6.892;2023-03-07T12:19:01;6.10;99.90
52669;DHT22;59898;52.786;6.892;2023-03-07T12:22:44;5.40;99.90
52669;DHT22;59898;52.786;6.892;2023-03-07T12:26:27;4.80;99.90
52669;DHT22;59898;52.786;6.892;2023-03-07T12:30:05;4.70;99.90
52669;DHT22;59898;52.786;6.892;2023-03-07T12:37:37;3.90;99.90
52669;DHT22;59898;52.786;6.892;2023-03-07T12:41:46;3.70;99.90
52669;DHT22;59898;52.786;6.892;2023-03-07T12:48:55;3.60;99.90
52669;DHT22;59898;52.786;6.892;2023-03-07T12:52:33;3.50;99.90
52669;DHT22;59898;52.786;6.892;2023-03-07T12:56:11;3.40;99.90
52669;DHT22;59898;52.786;6.892;2023-03-07T12:59:35;3.50;99.90
52669;DHT22;59898;52.786;6.892;2023-03-07T13:03:01;3.40;99.90
52669;DHT22;59898;52.786;6.892;2023-03-07T13:06:26;3.30;99.90
52669;DHT22;59898;52.786;6.892;2023-03-07T13:09:49;3.90;99.90
52669;DHT22;59898;52.786;6.892;2023-03-07T13:17:02;3.50;99.90
52669;DHT22;59898;52.786;6.892;2023-03-07T13:23:46;3.50;99.90
52669;DHT22;59898;52.786;6.892;2023-03-07T13:27:25;3.60;99.90
52669;DHT22;59898;52.786;6.892;2023-03-07T13:34:43;3.60;99.90
52669;DHT22;59898;52.786;6.892;2023-03-07T13:42:00;3.80;99.90
52669;DHT22;59898;52.786;6.892;2023-03-07T13:48:58;4.20;99.90
52669;DHT22;59898;52.786;6.892;2023-03-07T13:52:35;4.00;99.90
52669;DHT22;59898;52.786;6.892;2023-03-07T13:59:21;4.20;99.90
52669;DHT22;59898;52.786;6.892;2023-03-07T14:02:47;4.40;99.90
52669;DHT22;59898;52.786;6.892;2023-03-07T14:06:14;4.40;99.90
52669;DHT22;59898;52.786;6.892;2023-03-07T14:09:45;4.40;99.90
52669;DHT22;59898;52.786;6.892;2023-03-07T14:31:35;4.70;99.90
52669;DHT22;59898;52.786;6.892;2023-03-07T14:34:57;4.70;99.90
52669;DHT22;59898;52.786;6.892;2023-03-07T14:38:25;4.80;99.90
52669;DHT22;59898;52.786;6.892;2023-03-07T14:46:00;4.80;99.90
52669;DHT22;59898;52.786;6.892;2023-03-07T14:49:41;4.90;99.90
52669;DHT22;59898;52.786;6.892;2023-03-07T14:53:21;4.90;99.90
52669;DHT22;59898;52.786;6.892;2023-03-07T14:56:43;4.90;99.90
52669;DHT22;59898;52.786;6.892;2023-03-07T15:03:32;5.50;99.90
52669;DHT22;59898;52.786;6.892;2023-03-07T15:07:01;5.00;99.90
52669;DHT22;59898;52.786;6.892;2023-03-07T15:14:20;5.00;99.90
52669;DHT22;59898;52.786;6.892;2023-03-07T15:17:42;4.90;99.90
52669;DHT22;59898;52.786;6.892;2023-03-07T15:21:04;4.80;99.90
52669;DHT22;59898;52.786;6.892;2023-03-07T15:24:37;4.70;99.90
52669;DHT22;59898;52.786;6.892;2023-03-07T15:31:21;4.60;99.90
52669;DHT22;59898;52.786;6.892;2023-03-07T15:34:42;4.60;99.90
52669;DHT22;59898;52.786;6.892;2023-03-07T15:38:22;4.70;99.90
52669;DHT22;59898;52.786;6.892;2023-03-07T15:41:58;4.10;99.90
52669;DHT22;59898;52.786;6.892;2023-03-07T15:45:32;3.90;99.90
52669;DHT22;59898;52.786;6.892;2023-03-07T15:48:53;3.80;99.90
52669;DHT22;59898;52.786;6.892;2023-03-07T15:52:32;3.80;99.90
52669;DHT22;59898;52.786;6.892;2023-03-07T15:55:59;3.90;99.90
52669;DHT22;59898;52.786;6.892;2023-03-07T16:02:51;4.00;99.90
52669;DHT22;59898;52.786;6.892;2023-03-07T16:06:44;4.10;99.90
52669;DHT22;59898;52.786;6.892;2023-03-07T16:10:05;4.20;99.90
52669;DHT22;59898;52.786;6.892;2023-03-07T16:13:31;4.20;99.90
52669;DHT22;59898;52.786;6.892;2023-03-07T16:16:55;4.30;99.90
52669;DHT22;59898;52.786;6.892;2023-03-07T16:20:19;4.30;99.90
52669;DHT22;59898;52.786;6.892;2023-03-07T16:23:41;4.20;99.90
52669;DHT22;59898;52.786;6.892;2023-03-07T16:27:02;4.20;99.90
52669;DHT22;59898;52.786;6.892;2023-03-07T16:30:25;4.10;99.90
52669;DHT22;59898;52.786;6.892;2023-03-07T16:33:47;4.20;99.90
52669;DHT22;59898;52.786;6.892;2023-03-07T16:37:08;4.10;99.90
52669;DHT22;59898;52.786;6.892;2023-03-07T16:40:30;4.10;99.90
52669;DHT22;59898;52.786;6.892;2023-03-07T16:43:56;4.00;99.90
52669;DHT22;59898;52.786;6.892;2023-03-07T16:47:17;4.00;99.90
52669;DHT22;59898;52.786;6.892;2023-03-07T16:50:38;4.00;99.90
52669;DHT22;59898;52.786;6.892;2023-03-07T16:53:58;3.90;99.90
52669;DHT22;59898;52.786;6.892;2023-03-07T16:57:20;3.80;99.90
52669;DHT22;59898;52.786;6.892;2023-03-07T17:00:42;4.00;99.90
52669;DHT22;59898;52.786;6.892;2023-03-07T17:04:02;3.60;99.90
52669;DHT22;59898;52.786;6.892;2023-03-07T17:07:23;3.60;99.90
52669;DHT22;59898;52.786;6.892;2023-03-07T17:10:46;3.60;99.90
52669;DHT22;59898;52.786;6.892;2023-03-07T17:14:07;3.40;99.90
52669;DHT22;59898;52.786;6.892;2023-03-07T17:17:31;3.40;99.90
52669;DHT22;59898;52.786;6.892;2023-03-07T17:20:52;3.80;99.90
52669;DHT22;59898;52.786;6.892;2023-03-07T17:24:13;3.30;99.90
52669;DHT22;59898;52.786;6.892;2023-03-07T17:27:36;3.30;99.90
52669;DHT22;59898;52.786;6.892;2023-03-07T17:30:58;3.30;99.90
52669;DHT22;59898;52.786;6.892;2023-03-07T17:34:24;3.30;99.90
52669;DHT22;59898;52.786;6.892;2023-03-07T17:37:45;3.30;99.90
52669;DHT22;59898;52.786;6.892;2023-03-07T17:41:08;3.30;99.90
52669;DHT22;59898;52.786;6.892;2023-03-07T17:44:29;3.10;99.90
52669;DHT22;59898;52.786;6.892;2023-03-07T17:47:51;3.10;99.90
52669;DHT22;59898;52.786;6.892;2023-03-07T17:51:13;3.10;99.90
52669;DHT22;59898;52.786;6.892;2023-03-07T17:54:33;3.10;99.90
52669;DHT22;59898;52.786;6.892;2023-03-07T17:57:54;3.10;99.90
52669;DHT22;59898;52.786;6.892;2023-03-07T18:01:15;3.00;99.90
52669;DHT22;59898;52.786;6.892;2023-03-07T18:04:35;3.00;99.90
52669;DHT22;59898;52.786;6.892;2023-03-07T18:07:57;3.00;99.90
52669;DHT22;59898;52.786;6.892;2023-03-07T18:11:18;3.00;99.90
52669;DHT22;59898;52.786;6.892;2023-03-07T18:14:39;3.10;99.90
52669;DHT22;59898;52.786;6.892;2023-03-07T18:18:00;3.10;99.90
52669;DHT22;59898;52.786;6.892;2023-03-07T18:21:20;3.40;99.90
52669;DHT22;59898;52.786;6.892;2023-03-07T18:24:41;3.10;99.90
52669;DHT22;59898;52.786;6.892;2023-03-07T18:28:02;3.10;99.90
52669;DHT22;59898;52.786;6.892;2023-03-07T18:31:25;3.00;99.90
52669;DHT22;59898;52.786;6.892;2023-03-07T18:34:49;2.90;99.90
52669;DHT22;59898;52.786;6.892;2023-03-07T18:38:10;2.90;99.90
52669;DHT22;59898;52.786;6.892;2023-03-07T18:41:31;3.80;99.90
52669;DHT22;59898;52.786;6.892;2023-03-07T18:44:52;2.80;99.90
52669;DHT22;59898;52.786;6.892;2023-03-07T18:48:13;2.80;99.90
52669;DHT22;59898;52.786;6.892;2023-03-07T18:51:34;2.80;99.90
52669;DHT22;59898;52.786;6.892;2023-03-07T18:54:54;2.70;99.90
52669;DHT22;59898;52.786;6.892;2023-03-07T18:58:15;2.80;99.90
52669;DHT22;59898;52.786;6.892;2023-03-07T19:01:36;2.80;99.90
52669;DHT22;59898;52.786;6.892;2023-03-07T19:04:57;2.80;99.90
52669;DHT22;59898;52.786;6.892;2023-03-07T19:08:17;3.00;99.90
52669;DHT22;59898;52.786;6.892;2023-03-07T19:11:38;3.30;99.90
52669;DHT22;59898;52.786;6.892;2023-03-07T19:14:59;2.50;99.90
52669;DHT22;59898;52.786;6.892;2023-03-07T19:18:19;3.00;99.90
52669;DHT22;59898;52.786;6.892;2023-03-07T19:21:40;2.50;99.90
52669;DHT22;59898;52.786;6.892;2023-03-07T19:25:01;2.70;99.90
52669;DHT22;59898;52.786;6.892;2023-03-07T19:28:21;2.50;99.90
52669;DHT22;59898;52.786;6.892;2023-03-07T19:31:42;2.50;99.90
52669;DHT22;59898;52.786;6.892;2023-03-07T19:35:04;2.40;99.90
52669;DHT22;59898;52.786;6.892;2023-03-07T19:38:25;2.40;99.90
52669;DHT22;59898;52.786;6.892;2023-03-07T19:41:46;2.30;99.90
52669;DHT22;59898;52.786;6.892;2023-03-07T19:45:10;2.30;99.90
52669;DHT22;59898;52.786;6.892;2023-03-07T19:48:30;2.30;99.90
52669;DHT22;59898;52.786;6.892;2023-03-07T19:51:51;2.30;99.90
52669;DHT22;59898;52.786;6.892;2023-03-07T19:55:12;2.30;99.90
52669;DHT22;59898;52.786;6.892;2023-03-07T19:58:35;2.20;99.90
52669;DHT22;59898;52.786;6.892;2023-03-07T20:01:56;2.50;99.90
52669;DHT22;59898;52.786;6.892;2023-03-07T20:05:16;2.00;99.90
52669;DHT22;59898;52.786;6.892;2023-03-07T20:08:37;1.90;99.90
52669;DHT22;59898;52.786;6.892;2023-03-07T20:11:58;1.90;99.90
52669;DHT22;59898;52.786;6.892;2023-03-07T20:15:18;1.80;99.90
52669;DHT22;59898;52.786;6.892;2023-03-07T20:18:40;1.80;99.90
52669;DHT22;59898;52.786;6.892;2023-03-07T20:22:00;1.90;99.90
52669;DHT22;59898;52.786;6.892;2023-03-07T20:25:21;1.70;99.90
52669;DHT22;59898;52.786;6.892;2023-03-07T20:28:43;1.70;99.90
52669;DHT22;59898;52.786;6.892;2023-03-07T20:32:04;1.70;99.90
52669;DHT22;59898;52.786;6.892;2023-03-07T20:35:25;2.50;99.90
52669;DHT22;59898;52.786;6.892;2023-03-07T20:38:53;1.70;99.90
52669;DHT22;59898;52.786;6.892;2023-03-07T20:42:14;1.70;99.90
52669;DHT22;59898;52.786;6.892;2023-03-07T20:45:35;1.70;99.90
52669;DHT22;59898;52.786;6.892;2023-03-07T20:48:57;1.60;99.90
52669;DHT22;59898;52.786;6.892;2023-03-07T20:52:18;1.50;99.90
52669;DHT22;59898;52.786;6.892;2023-03-07T20:55:39;1.50;99.90
52669;DHT22;59898;52.786;6.892;2023-03-07T20:58:59;1.50;99.90
52669;DHT22;59898;52.786;6.892;2023-03-07T21:02:20;1.50;99.90
52669;DHT22;59898;52.786;6.892;2023-03-07T21:05:41;1.30;99.90
52669;DHT22;59898;52.786;6.892;2023-03-07T21:09:02;1.50;99.90
52669;DHT22;59898;52.786;6.892;2023-03-07T21:12:27;1.30;99.90
52669;DHT22;59898;52.786;6.892;2023-03-07T21:15:52;1.30;99.90
52669;DHT22;59898;52.786;6.892;2023-03-07T21:19:13;2.20;99.90
52669;DHT22;59898;52.786;6.892;2023-03-07T21:22:33;1.40;99.90
52669;DHT22;59898;52.786;6.892;2023-03-07T21:26:21;1.30;99.90
52669;DHT22;59898;52.786;6.892;2023-03-07T21:29:42;1.30;99.90
52669;DHT22;59898;52.786;6.892;2023-03-07T21:33:03;1.90;99.90
52669;DHT22;59898;52.786;6.892;2023-03-07T21:36:28;1.20;99.90
52669;DHT22;59898;52.786;6.892;2023-03-07T21:39:50;1.70;99.90
52669;DHT22;59898;52.786;6.892;2023-03-07T21:43:11;1.10;99.90
52669;DHT22;59898;52.786;6.892;2023-03-07T21:46:32;1.60;99.90
52669;DHT22;59898;52.786;6.892;2023-03-07T21:49:53;1.10;99.90
52669;DHT22;59898;52.786;6.892;2023-03-07T21:53:14;1.00;99.90
52669;DHT22;59898;52.786;6.892;2023-03-07T21:56:35;1.00;99.90
52669;DHT22;59898;52.786;6.892;2023-03-07T21:59:55;2.40;99.90
52669;DHT22;59898;52.786;6.892;2023-03-07T22:03:17;1.20;99.90
52669;DHT22;59898;52.786;6.892;2023-03-07T22:06:38;1.50;99.90
52669;DHT22;59898;52.786;6.892;2023-03-07T22:09:59;0.90;99.90
52669;DHT22;59898;52.786;6.892;2023-03-07T22:13:19;0.80;99.90
52669;DHT22;59898;52.786;6.892;2023-03-07T22:16:40;0.80;99.90
52669;DHT22;59898;52.786;6.892;2023-03-07T22:20:01;1.10;99.90
52669;DHT22;59898;52.786;6.892;2023-03-07T22:23:23;1.90;99.90
52669;DHT22;59898;52.786;6.892;2023-03-07T22:26:45;0.70;99.90
52669;DHT22;59898;52.786;6.892;2023-03-07T22:30:07;0.60;99.90
52669;DHT22;59898;52.786;6.892;2023-03-07T22:33:29;0.60;99.90
52669;DHT22;59898;52.786;6.892;2023-03-07T22:36:50;2.00;99.90
52669;DHT22;59898;52.786;6.892;2023-03-07T22:40:11;2.20;99.90
52669;DHT22;59898;52.786;6.892;2023-03-07T22:43:33;0.60;99.90
52669;DHT22;59898;52.786;6.892;2023-03-07T22:46:54;1.40;99.90
52669;DHT22;59898;52.786;6.892;2023-03-07T22:50:15;0.60;99.90
52669;DHT22;59898;52.786;6.892;2023-03-07T22:53:36;0.70;99.90
52669;DHT22;59898;52.786;6.892;2023-03-07T22:56:57;1.20;99.90
52669;DHT22;59898;52.786;6.892;2023-03-07T23:00:18;0.60;99.90
52669;DHT22;59898;52.786;6.892;2023-03-07T23:03:39;0.60;99.90
52669;DHT22;59898;52.786;6.892;2023-03-07T23:06:59;1.30;99.90
52669;DHT22;59898;52.786;6.892;2023-03-07T23:10:20;1.20;99.90
52669;DHT22;59898;52.786;6.892;2023-03-07T23:13:41;0.70;99.90
52669;DHT22;59898;52.786;6.892;2023-03-07T23:17:02;1.80;99.90
52669;DHT22;59898;52.786;6.892;2023-03-07T23:20:23;0.70;99.90
52669;DHT22;59898;52.786;6.892;2023-03-07T23:23:45;0.80;99.90
52669;DHT22;59898;52.786;6.892;2023-03-07T23:27:06;0.80;99.90
52669;DHT22;59898;52.786;6.892;2023-03-07T23:30:28;1.40;99.90
52669;DHT22;59898;52.786;6.892;2023-03-07T23:33:49;0.90;99.90
52669;DHT22;59898;52.786;6.892;2023-03-07T23:37:10;0.80;99.90
52669;DHT22;59898;52.786;6.892;2023-03-07T23:40:31;0.80;99.90
52669;DHT22;59898;52.786;6.892;2023-03-07T23:43:53;1.20;99.90
52669;DHT22;59898;52.786;6.892;2023-03-07T23:47:14;0.60;99.90